Terminal Aerodrome Forecast
Issued by NWS Paducah, KY

Home | Current Version | Previous Version | Text Only | Print | Product List | Glossary On
Versions: 1 2 3 4 5 6 7 8 9 10 11 12 13 14 15
000
FTUS43 KPAH 171100
TAFEVV
TAF
KEVV 171127Z 1712/1812 16004KT P6SM FEW250
     FM171600 19011G17KT P6SM FEW050 SCT250
     FM172300 14003KT P6SM BKN050=

USA.gov is the U.S. government's official web portal to all federal, state and local government web resources and services.